sensor_id;sensor_type;location;lat;lon;timestamp;P1;durP1;ratioP1;P2;durP2;ratioP2
11604;SDS011;5858;43.076;25.626;2023-07-31T00:00:18;4.07;;;2.38;;
11604;SDS011;5858;43.076;25.626;2023-07-31T00:02:46;4.57;;;2.63;;
11604;SDS011;5858;43.076;25.626;2023-07-31T00:05:16;3.05;;;2.85;;
11604;SDS011;5858;43.076;25.626;2023-07-31T00:07:43;3.55;;;2.50;;
11604;SDS011;5858;43.076;25.626;2023-07-31T00:10:10;2.65;;;2.45;;
11604;SDS011;5858;43.076;25.626;2023-07-31T00:12:37;4.50;;;2.70;;
11604;SDS011;5858;43.076;25.626;2023-07-31T00:15:05;4.22;;;2.50;;
11604;SDS011;5858;43.076;25.626;2023-07-31T00:17:32;3.53;;;3.22;;
11604;SDS011;5858;43.076;25.626;2023-07-31T00:20:01;3.50;;;3.20;;
11604;SDS011;5858;43.076;25.626;2023-07-31T00:22:28;3.97;;;3.67;;
11604;SDS011;5858;43.076;25.626;2023-07-31T00:24:55;4.22;;;3.72;;
11604;SDS011;5858;43.076;25.626;2023-07-31T00:27:22;4.25;;;3.85;;
11604;SDS011;5858;43.076;25.626;2023-07-31T00:29:49;3.97;;;3.42;;
11604;SDS011;5858;43.076;25.626;2023-07-31T00:32:19;3.33;;;3.03;;
11604;SDS011;5858;43.076;25.626;2023-07-31T00:34:46;3.65;;;3.33;;
11604;SDS011;5858;43.076;25.626;2023-07-31T00:37:14;3.95;;;3.65;;
11604;SDS011;5858;43.076;25.626;2023-07-31T00:39:41;4.68;;;3.72;;
11604;SDS011;5858;43.076;25.626;2023-07-31T00:42:08;6.88;;;3.70;;
11604;SDS011;5858;43.076;25.626;2023-07-31T00:44:34;5.18;;;3.55;;
11604;SDS011;5858;43.076;25.626;2023-07-31T00:47:01;4.10;;;3.80;;
11604;SDS011;5858;43.076;25.626;2023-07-31T00:49:28;3.92;;;3.63;;
11604;SDS011;5858;43.076;25.626;2023-07-31T00:51:55;4.90;;;3.83;;
11604;SDS011;5858;43.076;25.626;2023-07-31T00:54:24;4.50;;;4.10;;
11604;SDS011;5858;43.076;25.626;2023-07-31T00:56:51;4.45;;;3.95;;
11604;SDS011;5858;43.076;25.626;2023-07-31T00:59:20;4.72;;;4.32;;
11604;SDS011;5858;43.076;25.626;2023-07-31T01:01:47;4.78;;;4.38;;
11604;SDS011;5858;43.076;25.626;2023-07-31T01:04:14;4.80;;;4.32;;
11604;SDS011;5858;43.076;25.626;2023-07-31T01:06:44;4.80;;;4.40;;
11604;SDS011;5858;43.076;25.626;2023-07-31T01:09:16;5.88;;;5.13;;
11604;SDS011;5858;43.076;25.626;2023-07-31T01:11:52;6.00;;;5.40;;
11604;SDS011;5858;43.076;25.626;2023-07-31T01:14:22;6.22;;;5.72;;
11604;SDS011;5858;43.076;25.626;2023-07-31T01:16:49;6.10;;;5.55;;
11604;SDS011;5858;43.076;25.626;2023-07-31T01:19:16;5.47;;;4.97;;
11604;SDS011;5858;43.076;25.626;2023-07-31T01:21:53;5.15;;;4.75;;
11604;SDS011;5858;43.076;25.626;2023-07-31T01:24:34;5.22;;;4.82;;
11604;SDS011;5858;43.076;25.626;2023-07-31T01:27:10;5.10;;;4.60;;
11604;SDS011;5858;43.076;25.626;2023-07-31T01:29:42;5.45;;;4.95;;
11604;SDS011;5858;43.076;25.626;2023-07-31T01:32:13;5.80;;;5.30;;
11604;SDS011;5858;43.076;25.626;2023-07-31T01:34:40;5.35;;;4.95;;
11604;SDS011;5858;43.076;25.626;2023-07-31T01:37:08;5.30;;;4.90;;
11604;SDS011;5858;43.076;25.626;2023-07-31T01:39:35;5.70;;;5.13;;
11604;SDS011;5858;43.076;25.626;2023-07-31T01:42:02;6.15;;;5.55;;
11604;SDS011;5858;43.076;25.626;2023-07-31T01:44:30;5.75;;;5.25;;
11604;SDS011;5858;43.076;25.626;2023-07-31T01:46:57;10.98;;;5.55;;
11604;SDS011;5858;43.076;25.626;2023-07-31T01:49:25;6.70;;;6.10;;
11604;SDS011;5858;43.076;25.626;2023-07-31T01:51:52;7.00;;;6.22;;
11604;SDS011;5858;43.076;25.626;2023-07-31T01:54:19;8.30;;;7.50;;
11604;SDS011;5858;43.076;25.626;2023-07-31T01:56:46;9.50;;;8.52;;
11604;SDS011;5858;43.076;25.626;2023-07-31T01:59:12;9.70;;;8.77;;
11604;SDS011;5858;43.076;25.626;2023-07-31T02:01:40;10.50;;;9.50;;
11604;SDS011;5858;43.076;25.626;2023-07-31T02:04:07;10.95;;;9.93;;
11604;SDS011;5858;43.076;25.626;2023-07-31T02:06:34;11.32;;;10.43;;
11604;SDS011;5858;43.076;25.626;2023-07-31T02:09:01;10.32;;;9.52;;
11604;SDS011;5858;43.076;25.626;2023-07-31T02:11:28;11.07;;;9.88;;
11604;SDS011;5858;43.076;25.626;2023-07-31T02:13:55;11.23;;;10.32;;
11604;SDS011;5858;43.076;25.626;2023-07-31T02:16:22;11.25;;;10.35;;
11604;SDS011;5858;43.076;25.626;2023-07-31T02:18:50;11.32;;;10.25;;
11604;SDS011;5858;43.076;25.626;2023-07-31T02:21:17;11.88;;;10.88;;
11604;SDS011;5858;43.076;25.626;2023-07-31T02:23:44;12.10;;;10.82;;
11604;SDS011;5858;43.076;25.626;2023-07-31T02:26:10;11.35;;;10.50;;
11604;SDS011;5858;43.076;25.626;2023-07-31T02:28:37;10.95;;;9.85;;
11604;SDS011;5858;43.076;25.626;2023-07-31T02:31:04;11.32;;;10.32;;
11604;SDS011;5858;43.076;25.626;2023-07-31T02:33:31;11.90;;;10.98;;
11604;SDS011;5858;43.076;25.626;2023-07-31T02:35:59;11.45;;;10.55;;
11604;SDS011;5858;43.076;25.626;2023-07-31T02:38:26;13.40;;;12.02;;
11604;SDS011;5858;43.076;25.626;2023-07-31T02:41:00;12.77;;;11.68;;
11604;SDS011;5858;43.076;25.626;2023-07-31T02:43:27;12.57;;;11.45;;
11604;SDS011;5858;43.076;25.626;2023-07-31T02:45:56;12.55;;;11.43;;
11604;SDS011;5858;43.076;25.626;2023-07-31T02:48:23;13.77;;;11.63;;
11604;SDS011;5858;43.076;25.626;2023-07-31T02:50:50;13.95;;;12.77;;
11604;SDS011;5858;43.076;25.626;2023-07-31T02:53:21;14.07;;;12.75;;
11604;SDS011;5858;43.076;25.626;2023-07-31T02:55:48;15.43;;;13.95;;
11604;SDS011;5858;43.076;25.626;2023-07-31T02:58:15;14.73;;;13.40;;
11604;SDS011;5858;43.076;25.626;2023-07-31T03:00:44;14.27;;;13.10;;
11604;SDS011;5858;43.076;25.626;2023-07-31T03:03:11;14.82;;;13.52;;
11604;SDS011;5858;43.076;25.626;2023-07-31T03:05:38;14.80;;;13.55;;
11604;SDS011;5858;43.076;25.626;2023-07-31T03:08:05;15.48;;;14.00;;
11604;SDS011;5858;43.076;25.626;2023-07-31T03:10:33;14.32;;;13.10;;
11604;SDS011;5858;43.076;25.626;2023-07-31T03:13:00;14.32;;;12.98;;
11604;SDS011;5858;43.076;25.626;2023-07-31T03:15:27;18.58;;;13.50;;
11604;SDS011;5858;43.076;25.626;2023-07-31T03:17:53;15.93;;;14.40;;
11604;SDS011;5858;43.076;25.626;2023-07-31T03:20:20;15.35;;;14.05;;
11604;SDS011;5858;43.076;25.626;2023-07-31T03:22:47;16.13;;;14.73;;
11604;SDS011;5858;43.076;25.626;2023-07-31T03:25:14;14.82;;;13.52;;
11604;SDS011;5858;43.076;25.626;2023-07-31T03:27:42;14.60;;;13.25;;
11604;SDS011;5858;43.076;25.626;2023-07-31T03:30:09;15.25;;;13.98;;
11604;SDS011;5858;43.076;25.626;2023-07-31T03:32:37;15.18;;;13.80;;
11604;SDS011;5858;43.076;25.626;2023-07-31T03:35:04;14.07;;;12.80;;
11604;SDS011;5858;43.076;25.626;2023-07-31T03:37:34;14.95;;;13.52;;
11604;SDS011;5858;43.076;25.626;2023-07-31T03:40:01;15.60;;;13.85;;
11604;SDS011;5858;43.076;25.626;2023-07-31T03:42:29;15.18;;;13.77;;
11604;SDS011;5858;43.076;25.626;2023-07-31T03:45:01;15.20;;;13.80;;
11604;SDS011;5858;43.076;25.626;2023-07-31T03:47:27;15.25;;;13.95;;
11604;SDS011;5858;43.076;25.626;2023-07-31T03:49:54;14.48;;;13.13;;
11604;SDS011;5858;43.076;25.626;2023-07-31T03:52:24;13.60;;;12.50;;
11604;SDS011;5858;43.076;25.626;2023-07-31T03:54:51;15.13;;;13.93;;
11604;SDS011;5858;43.076;25.626;2023-07-31T03:57:18;13.95;;;12.88;;
11604;SDS011;5858;43.076;25.626;2023-07-31T03:59:45;15.68;;;14.45;;
11604;SDS011;5858;43.076;25.626;2023-07-31T04:02:13;15.15;;;13.65;;
11604;SDS011;5858;43.076;25.626;2023-07-31T04:04:41;15.57;;;14.25;;
11604;SDS011;5858;43.076;25.626;2023-07-31T04:07:08;16.45;;;15.07;;
11604;SDS011;5858;43.076;25.626;2023-07-31T04:09:35;16.92;;;15.50;;
11604;SDS011;5858;43.076;25.626;2023-07-31T04:12:01;15.05;;;13.77;;
11604;SDS011;5858;43.076;25.626;2023-07-31T04:14:29;15.90;;;14.60;;
11604;SDS011;5858;43.076;25.626;2023-07-31T04:16:55;15.02;;;13.65;;
11604;SDS011;5858;43.076;25.626;2023-07-31T04:19:24;15.63;;;14.20;;
11604;SDS011;5858;43.076;25.626;2023-07-31T04:21:51;15.70;;;14.30;;
11604;SDS011;5858;43.076;25.626;2023-07-31T04:24:18;16.92;;;15.45;;
11604;SDS011;5858;43.076;25.626;2023-07-31T04:26:49;17.65;;;16.05;;
11604;SDS011;5858;43.076;25.626;2023-07-31T04:29:16;21.15;;;19.13;;
11604;SDS011;5858;43.076;25.626;2023-07-31T04:31:43;21.88;;;19.73;;
11604;SDS011;5858;43.076;25.626;2023-07-31T04:34:10;24.10;;;21.58;;
11604;SDS011;5858;43.076;25.626;2023-07-31T04:36:45;29.05;;;23.65;;
11604;SDS011;5858;43.076;25.626;2023-07-31T04:39:14;26.90;;;22.77;;
11604;SDS011;5858;43.076;25.626;2023-07-31T04:41:44;22.65;;;20.25;;
11604;SDS011;5858;43.076;25.626;2023-07-31T04:44:16;22.67;;;19.92;;
11604;SDS011;5858;43.076;25.626;2023-07-31T04:46:50;20.17;;;18.23;;
11604;SDS011;5858;43.076;25.626;2023-07-31T04:49:20;18.48;;;16.67;;
11604;SDS011;5858;43.076;25.626;2023-07-31T04:51:49;19.33;;;17.42;;
11604;SDS011;5858;43.076;25.626;2023-07-31T04:54:22;16.90;;;15.30;;
11604;SDS011;5858;43.076;25.626;2023-07-31T04:56:51;17.17;;;15.48;;
11604;SDS011;5858;43.076;25.626;2023-07-31T04:59:32;17.08;;;15.52;;
11604;SDS011;5858;43.076;25.626;2023-07-31T05:01:59;17.15;;;15.15;;
11604;SDS011;5858;43.076;25.626;2023-07-31T05:04:29;15.45;;;14.05;;
11604;SDS011;5858;43.076;25.626;2023-07-31T05:07:06;14.90;;;13.15;;
11604;SDS011;5858;43.076;25.626;2023-07-31T05:09:39;14.00;;;12.55;;
11604;SDS011;5858;43.076;25.626;2023-07-31T05:12:46;12.25;;;11.13;;
11604;SDS011;5858;43.076;25.626;2023-07-31T05:15:13;14.00;;;12.60;;
11604;SDS011;5858;43.076;25.626;2023-07-31T05:17:41;13.07;;;11.85;;
11604;SDS011;5858;43.076;25.626;2023-07-31T05:20:08;13.35;;;12.05;;
11604;SDS011;5858;43.076;25.626;2023-07-31T05:22:37;13.60;;;12.40;;
11604;SDS011;5858;43.076;25.626;2023-07-31T05:25:04;14.52;;;13.32;;
11604;SDS011;5858;43.076;25.626;2023-07-31T05:27:31;14.77;;;13.45;;
11604;SDS011;5858;43.076;25.626;2023-07-31T05:29:59;14.13;;;12.90;;
11604;SDS011;5858;43.076;25.626;2023-07-31T05:32:28;15.38;;;14.02;;
11604;SDS011;5858;43.076;25.626;2023-07-31T05:34:55;15.32;;;13.77;;
11604;SDS011;5858;43.076;25.626;2023-07-31T05:37:22;15.90;;;14.52;;
11604;SDS011;5858;43.076;25.626;2023-07-31T05:39:51;16.25;;;14.88;;
11604;SDS011;5858;43.076;25.626;2023-07-31T05:42:18;14.70;;;13.13;;
11604;SDS011;5858;43.076;25.626;2023-07-31T05:44:47;14.10;;;12.75;;
11604;SDS011;5858;43.076;25.626;2023-07-31T05:47:14;15.40;;;14.10;;
11604;SDS011;5858;43.076;25.626;2023-07-31T05:49:44;13.27;;;12.00;;
11604;SDS011;5858;43.076;25.626;2023-07-31T05:52:11;13.23;;;12.02;;
11604;SDS011;5858;43.076;25.626;2023-07-31T05:54:38;12.57;;;11.45;;
11604;SDS011;5858;43.076;25.626;2023-07-31T05:57:13;12.10;;;11.00;;
11604;SDS011;5858;43.076;25.626;2023-07-31T05:59:40;12.20;;;11.00;;
11604;SDS011;5858;43.076;25.626;2023-07-31T06:02:07;11.63;;;10.70;;
11604;SDS011;5858;43.076;25.626;2023-07-31T06:04:42;11.77;;;10.77;;
11604;SDS011;5858;43.076;25.626;2023-07-31T06:07:14;10.82;;;9.82;;
11604;SDS011;5858;43.076;25.626;2023-07-31T06:09:41;11.00;;;9.93;;
11604;SDS011;5858;43.076;25.626;2023-07-31T06:12:28;10.63;;;9.60;;
11604;SDS011;5858;43.076;25.626;2023-07-31T06:14:56;11.25;;;10.07;;
11604;SDS011;5858;43.076;25.626;2023-07-31T06:17:23;10.30;;;9.43;;
11604;SDS011;5858;43.076;25.626;2023-07-31T06:19:54;11.00;;;10.00;;
11604;SDS011;5858;43.076;25.626;2023-07-31T06:22:35;12.05;;;10.75;;
11604;SDS011;5858;43.076;25.626;2023-07-31T06:25:02;11.63;;;10.50;;
11604;SDS011;5858;43.076;25.626;2023-07-31T06:27:39;11.13;;;10.13;;
11604;SDS011;5858;43.076;25.626;2023-07-31T06:30:11;11.88;;;10.68;;
11604;SDS011;5858;43.076;25.626;2023-07-31T06:32:38;11.25;;;10.25;;
11604;SDS011;5858;43.076;25.626;2023-07-31T06:35:06;11.15;;;10.05;;
11604;SDS011;5858;43.076;25.626;2023-07-31T06:37:33;12.18;;;10.93;;
11604;SDS011;5858;43.076;25.626;2023-07-31T06:40:00;11.48;;;10.48;;
11604;SDS011;5858;43.076;25.626;2023-07-31T06:42:27;11.75;;;10.48;;
11604;SDS011;5858;43.076;25.626;2023-07-31T06:44:56;11.80;;;10.75;;
11604;SDS011;5858;43.076;25.626;2023-07-31T06:47:23;11.52;;;10.43;;
11604;SDS011;5858;43.076;25.626;2023-07-31T06:49:50;11.07;;;10.18;;
11604;SDS011;5858;43.076;25.626;2023-07-31T06:52:17;12.27;;;10.98;;
11604;SDS011;5858;43.076;25.626;2023-07-31T06:54:44;10.90;;;9.85;;
11604;SDS011;5858;43.076;25.626;2023-07-31T06:57:46;10.07;;;9.10;;
11604;SDS011;5858;43.076;25.626;2023-07-31T07:00:15;11.38;;;10.18;;
11604;SDS011;5858;43.076;25.626;2023-07-31T07:02:45;11.40;;;10.32;;
11604;SDS011;5858;43.076;25.626;2023-07-31T07:05:18;11.55;;;10.45;;
11604;SDS011;5858;43.076;25.626;2023-07-31T07:07:48;10.18;;;9.30;;
11604;SDS011;5858;43.076;25.626;2023-07-31T07:13:07;11.77;;;10.77;;
11604;SDS011;5858;43.076;25.626;2023-07-31T07:18:41;10.73;;;9.82;;
11604;SDS011;5858;43.076;25.626;2023-07-31T07:21:13;10.68;;;9.68;;
11604;SDS011;5858;43.076;25.626;2023-07-31T07:23:51;10.65;;;9.65;;
11604;SDS011;5858;43.076;25.626;2023-07-31T07:26:18;10.32;;;9.43;;
11604;SDS011;5858;43.076;25.626;2023-07-31T07:28:48;10.52;;;9.35;;
11604;SDS011;5858;43.076;25.626;2023-07-31T07:35:00;11.32;;;10.18;;
11604;SDS011;5858;43.076;25.626;2023-07-31T07:37:52;10.93;;;9.82;;
11604;SDS011;5858;43.076;25.626;2023-07-31T07:40:43;10.85;;;9.85;;
11604;SDS011;5858;43.076;25.626;2023-07-31T07:46:27;11.00;;;9.52;;
11604;SDS011;5858;43.076;25.626;2023-07-31T07:48:56;10.48;;;9.38;;
11604;SDS011;5858;43.076;25.626;2023-07-31T07:51:30;10.45;;;9.30;;
11604;SDS011;5858;43.076;25.626;2023-07-31T07:53:59;9.45;;;8.65;;
11604;SDS011;5858;43.076;25.626;2023-07-31T07:56:36;9.27;;;8.38;;
11604;SDS011;5858;43.076;25.626;2023-07-31T07:59:06;8.80;;;8.00;;
11604;SDS011;5858;43.076;25.626;2023-07-31T08:01:39;8.32;;;7.60;;
11604;SDS011;5858;43.076;25.626;2023-07-31T08:04:06;7.97;;;7.28;;
11604;SDS011;5858;43.076;25.626;2023-07-31T08:06:35;7.63;;;6.93;;
11604;SDS011;5858;43.076;25.626;2023-07-31T08:09:02;8.15;;;7.35;;
11604;SDS011;5858;43.076;25.626;2023-07-31T08:14:13;8.52;;;7.72;;
11604;SDS011;5858;43.076;25.626;2023-07-31T08:16:40;8.98;;;8.13;;
11604;SDS011;5858;43.076;25.626;2023-07-31T08:19:11;7.18;;;6.63;;
11604;SDS011;5858;43.076;25.626;2023-07-31T08:21:42;7.45;;;6.75;;
11604;SDS011;5858;43.076;25.626;2023-07-31T08:24:09;7.90;;;7.15;;
11604;SDS011;5858;43.076;25.626;2023-07-31T08:26:40;7.15;;;6.45;;
11604;SDS011;5858;43.076;25.626;2023-07-31T08:29:07;10.38;;;7.10;;
11604;SDS011;5858;43.076;25.626;2023-07-31T08:31:41;8.40;;;7.60;;
11604;SDS011;5858;43.076;25.626;2023-07-31T08:37:29;11.02;;;7.22;;
11604;SDS011;5858;43.076;25.626;2023-07-31T08:40:01;7.47;;;6.72;;
11604;SDS011;5858;43.076;25.626;2023-07-31T08:42:29;7.40;;;6.40;;
11604;SDS011;5858;43.076;25.626;2023-07-31T08:44:56;7.07;;;6.25;;
11604;SDS011;5858;43.076;25.626;2023-07-31T08:47:25;7.25;;;6.63;;
11604;SDS011;5858;43.076;25.626;2023-07-31T08:49:53;6.65;;;6.05;;
11604;SDS011;5858;43.076;25.626;2023-07-31T08:52:25;7.53;;;6.82;;
11604;SDS011;5858;43.076;25.626;2023-07-31T08:54:56;8.10;;;7.38;;
11604;SDS011;5858;43.076;25.626;2023-07-31T08:57:24;7.55;;;6.90;;
11604;SDS011;5858;43.076;25.626;2023-07-31T08:59:51;7.88;;;6.90;;
11604;SDS011;5858;43.076;25.626;2023-07-31T09:02:22;8.00;;;7.20;;
11604;SDS011;5858;43.076;25.626;2023-07-31T09:05:01;9.05;;;7.15;;
11604;SDS011;5858;43.076;25.626;2023-07-31T09:07:30;7.57;;;6.78;;
11604;SDS011;5858;43.076;25.626;2023-07-31T09:10:02;6.93;;;6.20;;
11604;SDS011;5858;43.076;25.626;2023-07-31T09:12:29;8.65;;;7.30;;
11604;SDS011;5858;43.076;25.626;2023-07-31T09:15:05;10.02;;;8.77;;
11604;SDS011;5858;43.076;25.626;2023-07-31T09:17:50;7.60;;;6.80;;
11604;SDS011;5858;43.076;25.626;2023-07-31T09:20:26;8.43;;;6.80;;
11604;SDS011;5858;43.076;25.626;2023-07-31T09:22:53;6.60;;;6.00;;
11604;SDS011;5858;43.076;25.626;2023-07-31T09:25:23;6.20;;;5.43;;
11604;SDS011;5858;43.076;25.626;2023-07-31T09:27:56;7.03;;;6.43;;
11604;SDS011;5858;43.076;25.626;2023-07-31T09:30:46;7.87;;;7.03;;
11604;SDS011;5858;43.076;25.626;2023-07-31T09:33:56;7.20;;;6.60;;
11604;SDS011;5858;43.076;25.626;2023-07-31T09:36:50;7.40;;;6.20;;
11604;SDS011;5858;43.076;25.626;2023-07-31T09:44:41;4.50;;;4.13;;
11604;SDS011;5858;43.076;25.626;2023-07-31T09:47:24;5.80;;;4.75;;
11604;SDS011;5858;43.076;25.626;2023-07-31T09:49:55;5.28;;;4.78;;
11604;SDS011;5858;43.076;25.626;2023-07-31T09:52:38;5.38;;;4.93;;
11604;SDS011;5858;43.076;25.626;2023-07-31T09:55:05;4.72;;;4.32;;
11604;SDS011;5858;43.076;25.626;2023-07-31T09:57:33;5.35;;;4.85;;
11604;SDS011;5858;43.076;25.626;2023-07-31T10:00:06;4.70;;;4.30;;
11604;SDS011;5858;43.076;25.626;2023-07-31T10:02:34;4.50;;;4.20;;
11604;SDS011;5858;43.076;25.626;2023-07-31T10:05:04;5.13;;;4.32;;
11604;SDS011;5858;43.076;25.626;2023-07-31T10:07:33;4.72;;;4.00;;
11604;SDS011;5858;43.076;25.626;2023-07-31T10:10:05;4.85;;;4.38;;
11604;SDS011;5858;43.076;25.626;2023-07-31T10:12:34;4.45;;;4.05;;
11604;SDS011;5858;43.076;25.626;2023-07-31T10:15:14;4.55;;;4.15;;
11604;SDS011;5858;43.076;25.626;2023-07-31T10:17:43;5.32;;;4.57;;
11604;SDS011;5858;43.076;25.626;2023-07-31T10:20:20;5.90;;;4.40;;
11604;SDS011;5858;43.076;25.626;2023-07-31T10:22:56;5.18;;;4.60;;
11604;SDS011;5858;43.076;25.626;2023-07-31T10:25:32;4.68;;;4.28;;
11604;SDS011;5858;43.076;25.626;2023-07-31T10:28:03;5.65;;;4.30;;
11604;SDS011;5858;43.076;25.626;2023-07-31T10:30:35;4.97;;;4.25;;
11604;SDS011;5858;43.076;25.626;2023-07-31T10:33:07;4.68;;;4.28;;
11604;SDS011;5858;43.076;25.626;2023-07-31T10:35:40;4.85;;;4.40;;
11604;SDS011;5858;43.076;25.626;2023-07-31T10:38:11;6.05;;;5.55;;
11604;SDS011;5858;43.076;25.626;2023-07-31T10:40:39;5.70;;;5.20;;
11604;SDS011;5858;43.076;25.626;2023-07-31T10:43:07;5.53;;;5.00;;
11604;SDS011;5858;43.076;25.626;2023-07-31T10:45:44;6.10;;;5.60;;
11604;SDS011;5858;43.076;25.626;2023-07-31T10:48:15;5.30;;;4.88;;
11604;SDS011;5858;43.076;25.626;2023-07-31T10:50:46;5.20;;;4.80;;
11604;SDS011;5858;43.076;25.626;2023-07-31T10:53:22;7.18;;;5.13;;
11604;SDS011;5858;43.076;25.626;2023-07-31T10:55:50;5.45;;;4.95;;
11604;SDS011;5858;43.076;25.626;2023-07-31T10:58:18;5.05;;;4.20;;
11604;SDS011;5858;43.076;25.626;2023-07-31T11:00:48;5.72;;;5.22;;
11604;SDS011;5858;43.076;25.626;2023-07-31T11:03:16;4.93;;;4.53;;
11604;SDS011;5858;43.076;25.626;2023-07-31T11:05:51;5.00;;;4.60;;
11604;SDS011;5858;43.076;25.626;2023-07-31T11:08:30;5.00;;;4.60;;
11604;SDS011;5858;43.076;25.626;2023-07-31T11:11:12;5.93;;;4.40;;
11604;SDS011;5858;43.076;25.626;2023-07-31T11:13:43;5.18;;;4.45;;
11604;SDS011;5858;43.076;25.626;2023-07-31T11:16:15;5.07;;;4.63;;
11604;SDS011;5858;43.076;25.626;2023-07-31T11:18:44;5.57;;;5.07;;
11604;SDS011;5858;43.076;25.626;2023-07-31T11:21:12;8.50;;;5.38;;
11604;SDS011;5858;43.076;25.626;2023-07-31T11:23:40;5.35;;;4.88;;
11604;SDS011;5858;43.076;25.626;2023-07-31T11:26:11;4.90;;;4.50;;
11604;SDS011;5858;43.076;25.626;2023-07-31T11:28:50;5.10;;;4.70;;
11604;SDS011;5858;43.076;25.626;2023-07-31T11:31:23;5.05;;;4.63;;
11604;SDS011;5858;43.076;25.626;2023-07-31T11:34:04;4.85;;;4.07;;
11604;SDS011;5858;43.076;25.626;2023-07-31T11:36:39;5.05;;;4.60;;
11604;SDS011;5858;43.076;25.626;2023-07-31T11:39:26;4.80;;;4.40;;
11604;SDS011;5858;43.076;25.626;2023-07-31T11:54:58;4.65;;;4.30;;
11604;SDS011;5858;43.076;25.626;2023-07-31T11:57:37;4.38;;;4.07;;
11604;SDS011;5858;43.076;25.626;2023-07-31T12:00:18;4.70;;;4.40;;
11604;SDS011;5858;43.076;25.626;2023-07-31T12:03:06;5.00;;;4.60;;
11604;SDS011;5858;43.076;25.626;2023-07-31T12:05:52;4.60;;;4.20;;
11604;SDS011;5858;43.076;25.626;2023-07-31T12:08:29;6.28;;;4.30;;
11604;SDS011;5858;43.076;25.626;2023-07-31T12:11:02;4.75;;;4.45;;
11604;SDS011;5858;43.076;25.626;2023-07-31T12:13:30;5.10;;;4.70;;
11604;SDS011;5858;43.076;25.626;2023-07-31T12:16:02;5.50;;;5.00;;
11604;SDS011;5858;43.076;25.626;2023-07-31T12:18:33;5.28;;;4.88;;
11604;SDS011;5858;43.076;25.626;2023-07-31T12:21:37;5.78;;;4.70;;
11604;SDS011;5858;43.076;25.626;2023-07-31T12:24:07;6.55;;;5.03;;
11604;SDS011;5858;43.076;25.626;2023-07-31T12:26:39;4.97;;;4.50;;
11604;SDS011;5858;43.076;25.626;2023-07-31T12:29:07;5.07;;;4.68;;
11604;SDS011;5858;43.076;25.626;2023-07-31T12:31:37;4.90;;;4.50;;
11604;SDS011;5858;43.076;25.626;2023-07-31T12:34:15;4.65;;;4.25;;
11604;SDS011;5858;43.076;25.626;2023-07-31T12:36:46;4.93;;;4.53;;
11604;SDS011;5858;43.076;25.626;2023-07-31T12:39:17;6.32;;;4.85;;
11604;SDS011;5858;43.076;25.626;2023-07-31T12:41:49;5.95;;;5.45;;
11604;SDS011;5858;43.076;25.626;2023-07-31T12:44:33;4.70;;;4.30;;
11604;SDS011;5858;43.076;25.626;2023-07-31T12:47:08;5.25;;;4.72;;
11604;SDS011;5858;43.076;25.626;2023-07-31T12:49:35;5.35;;;4.95;;
11604;SDS011;5858;43.076;25.626;2023-07-31T12:52:03;4.70;;;4.40;;
11604;SDS011;5858;43.076;25.626;2023-07-31T12:54:31;5.05;;;4.55;;
11604;SDS011;5858;43.076;25.626;2023-07-31T12:56:59;4.88;;;4.50;;
11604;SDS011;5858;43.076;25.626;2023-07-31T12:59:30;5.07;;;4.68;;
11604;SDS011;5858;43.076;25.626;2023-07-31T13:02:06;5.40;;;5.00;;
11604;SDS011;5858;43.076;25.626;2023-07-31T13:04:33;4.82;;;4.20;;
11604;SDS011;5858;43.076;25.626;2023-07-31T13:07:07;5.03;;;4.63;;
11604;SDS011;5858;43.076;25.626;2023-07-31T13:09:37;4.82;;;4.32;;
11604;SDS011;5858;43.076;25.626;2023-07-31T13:12:08;5.50;;;4.45;;
11604;SDS011;5858;43.076;25.626;2023-07-31T13:14:35;5.22;;;4.75;;
11604;SDS011;5858;43.076;25.626;2023-07-31T13:17:03;5.13;;;4.72;;
11604;SDS011;5858;43.076;25.626;2023-07-31T13:19:30;4.90;;;4.50;;
11604;SDS011;5858;43.076;25.626;2023-07-31T13:22:00;4.75;;;4.35;;
11604;SDS011;5858;43.076;25.626;2023-07-31T13:24:29;5.13;;;4.72;;
11604;SDS011;5858;43.076;25.626;2023-07-31T13:27:01;4.78;;;4.47;;
11604;SDS011;5858;43.076;25.626;2023-07-31T13:29:30;4.45;;;4.15;;
11604;SDS011;5858;43.076;25.626;2023-07-31T13:31:57;5.35;;;4.95;;
11604;SDS011;5858;43.076;25.626;2023-07-31T13:34:29;5.53;;;5.03;;
11604;SDS011;5858;43.076;25.626;2023-07-31T13:36:59;5.55;;;5.10;;
11604;SDS011;5858;43.076;25.626;2023-07-31T13:39:26;6.10;;;5.53;;
11604;SDS011;5858;43.076;25.626;2023-07-31T13:41:56;5.57;;;5.07;;
11604;SDS011;5858;43.076;25.626;2023-07-31T13:44:25;5.40;;;4.97;;
11604;SDS011;5858;43.076;25.626;2023-07-31T13:46:54;5.40;;;4.93;;
11604;SDS011;5858;43.076;25.626;2023-07-31T13:49:26;5.47;;;4.93;;
11604;SDS011;5858;43.076;25.626;2023-07-31T13:51:54;6.30;;;4.80;;
11604;SDS011;5858;43.076;25.626;2023-07-31T13:54:21;5.70;;;5.30;;
11604;SDS011;5858;43.076;25.626;2023-07-31T13:56:51;5.85;;;5.28;;
11604;SDS011;5858;43.076;25.626;2023-07-31T13:59:18;6.22;;;5.63;;
11604;SDS011;5858;43.076;25.626;2023-07-31T14:01:45;5.57;;;5.07;;
11604;SDS011;5858;43.076;25.626;2023-07-31T14:04:24;5.90;;;5.40;;
11604;SDS011;5858;43.076;25.626;2023-07-31T14:06:51;5.43;;;5.03;;
11604;SDS011;5858;43.076;25.626;2023-07-31T14:09:21;6.18;;;5.55;;
11604;SDS011;5858;43.076;25.626;2023-07-31T14:11:55;6.50;;;5.18;;
11604;SDS011;5858;43.076;25.626;2023-07-31T14:14:41;6.72;;;4.95;;
11604;SDS011;5858;43.076;25.626;2023-07-31T14:17:11;5.45;;;5.00;;
11604;SDS011;5858;43.076;25.626;2023-07-31T14:19:40;6.45;;;5.97;;
11604;SDS011;5858;43.076;25.626;2023-07-31T14:22:07;6.95;;;6.30;;
11604;SDS011;5858;43.076;25.626;2023-07-31T14:24:34;6.25;;;5.75;;
11604;SDS011;5858;43.076;25.626;2023-07-31T14:27:01;6.88;;;6.35;;
11604;SDS011;5858;43.076;25.626;2023-07-31T14:29:28;6.95;;;6.25;;
11604;SDS011;5858;43.076;25.626;2023-07-31T14:31:58;6.43;;;5.93;;
11604;SDS011;5858;43.076;25.626;2023-07-31T14:34:27;7.95;;;6.60;;
11604;SDS011;5858;43.076;25.626;2023-07-31T14:36:59;7.28;;;6.70;;
11604;SDS011;5858;43.076;25.626;2023-07-31T14:39:26;7.43;;;6.82;;
11604;SDS011;5858;43.076;25.626;2023-07-31T14:41:53;7.68;;;7.00;;
11604;SDS011;5858;43.076;25.626;2023-07-31T14:44:20;7.05;;;6.43;;
11604;SDS011;5858;43.076;25.626;2023-07-31T14:46:48;6.60;;;6.10;;
11604;SDS011;5858;43.076;25.626;2023-07-31T14:49:15;8.13;;;6.38;;
11604;SDS011;5858;43.076;25.626;2023-07-31T14:51:43;7.03;;;6.43;;
11604;SDS011;5858;43.076;25.626;2023-07-31T14:54:12;9.60;;;7.55;;
11604;SDS011;5858;43.076;25.626;2023-07-31T14:56:47;10.07;;;8.02;;
11604;SDS011;5858;43.076;25.626;2023-07-31T14:59:14;7.82;;;7.03;;
11604;SDS011;5858;43.076;25.626;2023-07-31T15:01:52;9.23;;;8.30;;
11604;SDS011;5858;43.076;25.626;2023-07-31T15:04:20;8.52;;;7.82;;
11604;SDS011;5858;43.076;25.626;2023-07-31T15:07:40;9.63;;;8.73;;
11604;SDS011;5858;43.076;25.626;2023-07-31T15:10:21;10.25;;;9.35;;
11604;SDS011;5858;43.076;25.626;2023-07-31T15:12:48;10.68;;;9.65;;
11604;SDS011;5858;43.076;25.626;2023-07-31T15:21:51;14.52;;;10.88;;
11604;SDS011;5858;43.076;25.626;2023-07-31T15:24:20;15.00;;;11.40;;
11604;SDS011;5858;43.076;25.626;2023-07-31T15:26:49;16.98;;;10.70;;
11604;SDS011;5858;43.076;25.626;2023-07-31T15:29:16;13.25;;;10.18;;
11604;SDS011;5858;43.076;25.626;2023-07-31T15:31:44;15.23;;;13.20;;
11604;SDS011;5858;43.076;25.626;2023-07-31T15:34:12;13.90;;;12.50;;
11604;SDS011;5858;43.076;25.626;2023-07-31T15:36:39;16.02;;;12.40;;
11604;SDS011;5858;43.076;25.626;2023-07-31T15:39:06;13.50;;;12.10;;
11604;SDS011;5858;43.076;25.626;2023-07-31T15:41:34;11.05;;;9.60;;